sensor_id;sensor_type;location;lat;lon;timestamp;P1;P2;P0
70249;PMS5003;57644;48.416;-123.374;2022-12-01T00:01:32;4;4;
70249;PMS5003;57644;48.416;-123.374;2022-12-01T00:04:03;2;2;
70249;PMS5003;57644;48.416;-123.374;2022-12-01T00:06:33;3;3;
70249;PMS5003;57644;48.416;-123.374;2022-12-01T00:09:05;3;3;
70249;PMS5003;57644;48.416;-123.374;2022-12-01T00:11:35;3;2;
70249;PMS5003;57644;48.416;-123.374;2022-12-01T00:14:05;4;3;
70249;PMS5003;57644;48.416;-123.374;2022-12-01T00:16:35;1;1;
70249;PMS5003;57644;48.416;-123.374;2022-12-01T00:19:06;4;3;
70249;PMS5003;57644;48.416;-123.374;2022-12-01T00:21:37;3;3;
70249;PMS5003;57644;48.416;-123.374;2022-12-01T00:24:08;4;4;
70249;PMS5003;57644;48.416;-123.374;2022-12-01T00:26:38;3;2;
70249;PMS5003;57644;48.416;-123.374;2022-12-01T00:29:09;2;2;
70249;PMS5003;57644;48.416;-123.374;2022-12-01T00:31:39;4;4;
70249;PMS5003;57644;48.416;-123.374;2022-12-01T00:34:12;3;2;
70249;PMS5003;57644;48.416;-123.374;2022-12-01T00:36:40;3;3;
70249;PMS5003;57644;48.416;-123.374;2022-12-01T00:39:11;5;4;
70249;PMS5003;57644;48.416;-123.374;2022-12-01T00:41:41;3;3;
70249;PMS5003;57644;48.416;-123.374;2022-12-01T00:44:12;3;3;
70249;PMS5003;57644;48.416;-123.374;2022-12-01T00:46:43;3;3;
70249;PMS5003;57644;48.416;-123.374;2022-12-01T00:49:14;3;2;
70249;PMS5003;57644;48.416;-123.374;2022-12-01T00:51:44;7;5;
70249;PMS5003;57644;48.416;-123.374;2022-12-01T00:54:15;7;6;
70249;PMS5003;57644;48.416;-123.374;2022-12-01T00:56:45;6;6;
70249;PMS5003;57644;48.416;-123.374;2022-12-01T00:59:15;4;4;
70249;PMS5003;57644;48.416;-123.374;2022-12-01T01:01:46;4;4;
70249;PMS5003;57644;48.416;-123.374;2022-12-01T01:04:17;4;4;
70249;PMS5003;57644;48.416;-123.374;2022-12-01T01:06:47;2;2;
70249;PMS5003;57644;48.416;-123.374;2022-12-01T01:09:18;6;6;
70249;PMS5003;57644;48.416;-123.374;2022-12-01T01:11:48;6;6;
70249;PMS5003;57644;48.416;-123.374;2022-12-01T01:14:19;7;5;
70249;PMS5003;57644;48.416;-123.374;2022-12-01T01:16:49;5;5;
70249;PMS5003;57644;48.416;-123.374;2022-12-01T01:19:20;7;7;
70249;PMS5003;57644;48.416;-123.374;2022-12-01T01:21:51;8;8;
70249;PMS5003;57644;48.416;-123.374;2022-12-01T01:24:21;7;7;
70249;PMS5003;57644;48.416;-123.374;2022-12-01T01:26:52;7;7;
70249;PMS5003;57644;48.416;-123.374;2022-12-01T01:29:22;8;8;
70249;PMS5003;57644;48.416;-123.374;2022-12-01T01:31:53;11;9;
70249;PMS5003;57644;48.416;-123.374;2022-12-01T01:34:23;10;10;
70249;PMS5003;57644;48.416;-123.374;2022-12-01T01:36:54;18;16;
70249;PMS5003;57644;48.416;-123.374;2022-12-01T01:39:24;19;18;
70249;PMS5003;57644;48.416;-123.374;2022-12-01T01:41:55;14;13;
70249;PMS5003;57644;48.416;-123.374;2022-12-01T01:46:55;15;14;
70249;PMS5003;57644;48.416;-123.374;2022-12-01T01:49:26;26;25;
70249;PMS5003;57644;48.416;-123.374;2022-12-01T01:51:56;25;25;
70249;PMS5003;57644;48.416;-123.374;2022-12-01T01:54:28;28;27;
70249;PMS5003;57644;48.416;-123.374;2022-12-01T01:56:57;24;23;
70249;PMS5003;57644;48.416;-123.374;2022-12-01T01:59:28;26;25;
70249;PMS5003;57644;48.416;-123.374;2022-12-01T02:02:00;26;21;
70249;PMS5003;57644;48.416;-123.374;2022-12-01T02:04:28;24;21;
70249;PMS5003;57644;48.416;-123.374;2022-12-01T02:06:59;27;23;
70249;PMS5003;57644;48.416;-123.374;2022-12-01T02:09:30;24;24;
70249;PMS5003;57644;48.416;-123.374;2022-12-01T02:12:03;21;21;
70249;PMS5003;57644;48.416;-123.374;2022-12-01T02:17:03;21;20;
70249;PMS5003;57644;48.416;-123.374;2022-12-01T02:22:02;24;22;
70249;PMS5003;57644;48.416;-123.374;2022-12-01T02:27:01;24;23;
70249;PMS5003;57644;48.416;-123.374;2022-12-01T02:32:02;26;23;
70249;PMS5003;57644;48.416;-123.374;2022-12-01T02:34:34;27;22;
70249;PMS5003;57644;48.416;-123.374;2022-12-01T02:37:04;33;28;
70249;PMS5003;57644;48.416;-123.374;2022-12-01T02:39:33;30;30;
70249;PMS5003;57644;48.416;-123.374;2022-12-01T02:42:04;27;27;
70249;PMS5003;57644;48.416;-123.374;2022-12-01T02:44:35;29;27;
70249;PMS5003;57644;48.416;-123.374;2022-12-01T02:47:05;33;30;
70249;PMS5003;57644;48.416;-123.374;2022-12-01T02:49:34;33;30;
70249;PMS5003;57644;48.416;-123.374;2022-12-01T02:52:05;31;28;
70249;PMS5003;57644;48.416;-123.374;2022-12-01T02:54:35;30;29;
70249;PMS5003;57644;48.416;-123.374;2022-12-01T02:57:05;36;33;
70249;PMS5003;57644;48.416;-123.374;2022-12-01T02:59:37;34;32;
70249;PMS5003;57644;48.416;-123.374;2022-12-01T03:02:08;35;33;
70249;PMS5003;57644;48.416;-123.374;2022-12-01T03:04:40;28;27;
70249;PMS5003;57644;48.416;-123.374;2022-12-01T03:07:09;29;27;
70249;PMS5003;57644;48.416;-123.374;2022-12-01T03:09:43;33;31;
70249;PMS5003;57644;48.416;-123.374;2022-12-01T03:12:11;30;30;
70249;PMS5003;57644;48.416;-123.374;2022-12-01T03:14:40;33;31;
70249;PMS5003;57644;48.416;-123.374;2022-12-01T03:17:11;32;29;
70249;PMS5003;57644;48.416;-123.374;2022-12-01T03:19:40;35;33;
70249;PMS5003;57644;48.416;-123.374;2022-12-01T03:22:10;30;28;
70249;PMS5003;57644;48.416;-123.374;2022-12-01T03:24:42;33;32;
70249;PMS5003;57644;48.416;-123.374;2022-12-01T03:27:10;30;29;
70249;PMS5003;57644;48.416;-123.374;2022-12-01T03:29:42;35;35;
70249;PMS5003;57644;48.416;-123.374;2022-12-01T03:32:12;32;29;
70249;PMS5003;57644;48.416;-123.374;2022-12-01T03:34:42;36;36;
70249;PMS5003;57644;48.416;-123.374;2022-12-01T03:37:13;34;33;
70249;PMS5003;57644;48.416;-123.374;2022-12-01T03:39:42;30;28;
70249;PMS5003;57644;48.416;-123.374;2022-12-01T03:42:12;37;35;
70249;PMS5003;57644;48.416;-123.374;2022-12-01T03:44:44;36;35;
70249;PMS5003;57644;48.416;-123.374;2022-12-01T03:47:14;30;29;
70249;PMS5003;57644;48.416;-123.374;2022-12-01T03:49:44;31;26;
70249;PMS5003;57644;48.416;-123.374;2022-12-01T03:52:17;28;25;
70249;PMS5003;57644;48.416;-123.374;2022-12-01T03:54:47;28;26;
70249;PMS5003;57644;48.416;-123.374;2022-12-01T03:57:16;28;28;
70249;PMS5003;57644;48.416;-123.374;2022-12-01T03:59:45;33;30;
70249;PMS5003;57644;48.416;-123.374;2022-12-01T04:02:17;31;30;
70249;PMS5003;57644;48.416;-123.374;2022-12-01T04:04:46;26;25;
70249;PMS5003;57644;48.416;-123.374;2022-12-01T04:07:17;24;23;
70249;PMS5003;57644;48.416;-123.374;2022-12-01T04:09:47;33;31;
70249;PMS5003;57644;48.416;-123.374;2022-12-01T04:12:17;31;29;
70249;PMS5003;57644;48.416;-123.374;2022-12-01T04:14:48;28;27;
70249;PMS5003;57644;48.416;-123.374;2022-12-01T04:17:18;28;23;
70249;PMS5003;57644;48.416;-123.374;2022-12-01T04:19:49;30;29;
70249;PMS5003;57644;48.416;-123.374;2022-12-01T04:22:19;31;30;
70249;PMS5003;57644;48.416;-123.374;2022-12-01T04:24:51;29;26;
70249;PMS5003;57644;48.416;-123.374;2022-12-01T04:27:20;27;24;
70249;PMS5003;57644;48.416;-123.374;2022-12-01T04:29:50;26;25;
70249;PMS5003;57644;48.416;-123.374;2022-12-01T04:32:20;26;23;
70249;PMS5003;57644;48.416;-123.374;2022-12-01T04:34:51;24;24;
70249;PMS5003;57644;48.416;-123.374;2022-12-01T04:37:21;25;23;
70249;PMS5003;57644;48.416;-123.374;2022-12-01T04:39:53;27;25;
70249;PMS5003;57644;48.416;-123.374;2022-12-01T04:42:21;23;21;
70249;PMS5003;57644;48.416;-123.374;2022-12-01T04:44:52;23;21;
70249;PMS5003;57644;48.416;-123.374;2022-12-01T04:47:22;22;20;
70249;PMS5003;57644;48.416;-123.374;2022-12-01T04:49:53;21;20;
70249;PMS5003;57644;48.416;-123.374;2022-12-01T04:52:23;27;24;
70249;PMS5003;57644;48.416;-123.374;2022-12-01T04:54:53;28;26;
70249;PMS5003;57644;48.416;-123.374;2022-12-01T04:57:23;28;27;
70249;PMS5003;57644;48.416;-123.374;2022-12-01T04:59:54;29;27;
70249;PMS5003;57644;48.416;-123.374;2022-12-01T05:02:25;33;31;
70249;PMS5003;57644;48.416;-123.374;2022-12-01T05:04:56;27;26;
70249;PMS5003;57644;48.416;-123.374;2022-12-01T05:07:26;26;25;
70249;PMS5003;57644;48.416;-123.374;2022-12-01T05:09:56;25;23;
70249;PMS5003;57644;48.416;-123.374;2022-12-01T05:12:27;33;28;
70249;PMS5003;57644;48.416;-123.374;2022-12-01T05:14:58;34;30;
70249;PMS5003;57644;48.416;-123.374;2022-12-01T05:17:30;28;26;
70249;PMS5003;57644;48.416;-123.374;2022-12-01T05:19:59;27;24;
70249;PMS5003;57644;48.416;-123.374;2022-12-01T05:22:29;27;27;
70249;PMS5003;57644;48.416;-123.374;2022-12-01T05:25:00;31;28;
70249;PMS5003;57644;48.416;-123.374;2022-12-01T05:27:29;29;28;
70249;PMS5003;57644;48.416;-123.374;2022-12-01T05:30:00;27;25;
70249;PMS5003;57644;48.416;-123.374;2022-12-01T05:32:30;30;28;
70249;PMS5003;57644;48.416;-123.374;2022-12-01T05:35:01;26;23;
70249;PMS5003;57644;48.416;-123.374;2022-12-01T05:37:31;24;23;
70249;PMS5003;57644;48.416;-123.374;2022-12-01T05:40:01;25;25;
70249;PMS5003;57644;48.416;-123.374;2022-12-01T05:42:31;25;23;
70249;PMS5003;57644;48.416;-123.374;2022-12-01T05:45:01;26;24;
70249;PMS5003;57644;48.416;-123.374;2022-12-01T05:47:31;27;25;
70249;PMS5003;57644;48.416;-123.374;2022-12-01T05:50:02;28;27;
70249;PMS5003;57644;48.416;-123.374;2022-12-01T05:52:32;21;21;
70249;PMS5003;57644;48.416;-123.374;2022-12-01T05:55:03;27;26;
70249;PMS5003;57644;48.416;-123.374;2022-12-01T05:57:32;23;22;
70249;PMS5003;57644;48.416;-123.374;2022-12-01T06:00:03;31;28;
70249;PMS5003;57644;48.416;-123.374;2022-12-01T06:02:33;21;19;
70249;PMS5003;57644;48.416;-123.374;2022-12-01T06:05:03;23;22;
70249;PMS5003;57644;48.416;-123.374;2022-12-01T06:07:33;24;23;
70249;PMS5003;57644;48.416;-123.374;2022-12-01T06:10:05;30;27;
70249;PMS5003;57644;48.416;-123.374;2022-12-01T06:12:35;20;19;
70249;PMS5003;57644;48.416;-123.374;2022-12-01T06:15:06;22;21;
70249;PMS5003;57644;48.416;-123.374;2022-12-01T06:17:36;23;20;
70249;PMS5003;57644;48.416;-123.374;2022-12-01T06:20:07;20;18;
70249;PMS5003;57644;48.416;-123.374;2022-12-01T06:22:37;23;21;
70249;PMS5003;57644;48.416;-123.374;2022-12-01T06:25:08;28;27;
70249;PMS5003;57644;48.416;-123.374;2022-12-01T06:27:38;19;19;
70249;PMS5003;57644;48.416;-123.374;2022-12-01T06:30:09;23;22;
70249;PMS5003;57644;48.416;-123.374;2022-12-01T06:32:39;26;22;
70249;PMS5003;57644;48.416;-123.374;2022-12-01T06:35:10;26;22;
70249;PMS5003;57644;48.416;-123.374;2022-12-01T06:37:39;22;21;
70249;PMS5003;57644;48.416;-123.374;2022-12-01T06:40:10;24;22;
70249;PMS5003;57644;48.416;-123.374;2022-12-01T06:42:40;19;18;
70249;PMS5003;57644;48.416;-123.374;2022-12-01T06:45:11;21;20;
70249;PMS5003;57644;48.416;-123.374;2022-12-01T06:47:41;24;23;
70249;PMS5003;57644;48.416;-123.374;2022-12-01T06:50:12;26;25;
70249;PMS5003;57644;48.416;-123.374;2022-12-01T06:52:41;23;21;
70249;PMS5003;57644;48.416;-123.374;2022-12-01T06:55:12;22;21;
70249;PMS5003;57644;48.416;-123.374;2022-12-01T06:57:43;21;20;
70249;PMS5003;57644;48.416;-123.374;2022-12-01T07:00:13;26;24;
70249;PMS5003;57644;48.416;-123.374;2022-12-01T07:02:43;25;23;
70249;PMS5003;57644;48.416;-123.374;2022-12-01T07:05:14;24;24;
70249;PMS5003;57644;48.416;-123.374;2022-12-01T07:07:45;18;18;
70249;PMS5003;57644;48.416;-123.374;2022-12-01T07:10:15;16;15;
70249;PMS5003;57644;48.416;-123.374;2022-12-01T07:12:45;16;14;
70249;PMS5003;57644;48.416;-123.374;2022-12-01T07:15:16;15;13;
70249;PMS5003;57644;48.416;-123.374;2022-12-01T07:17:47;10;10;
70249;PMS5003;57644;48.416;-123.374;2022-12-01T07:20:17;9;9;
70249;PMS5003;57644;48.416;-123.374;2022-12-01T07:22:48;10;9;
70249;PMS5003;57644;48.416;-123.374;2022-12-01T07:25:18;8;8;
70249;PMS5003;57644;48.416;-123.374;2022-12-01T07:27:49;11;9;
70249;PMS5003;57644;48.416;-123.374;2022-12-01T07:30:20;11;10;
70249;PMS5003;57644;48.416;-123.374;2022-12-01T07:32:51;9;9;
70249;PMS5003;57644;48.416;-123.374;2022-12-01T07:35:21;7;7;
70249;PMS5003;57644;48.416;-123.374;2022-12-01T07:37:53;10;9;
70249;PMS5003;57644;48.416;-123.374;2022-12-01T07:40:22;9;8;
70249;PMS5003;57644;48.416;-123.374;2022-12-01T07:42:53;8;8;
70249;PMS5003;57644;48.416;-123.374;2022-12-01T07:45:23;8;8;
70249;PMS5003;57644;48.416;-123.374;2022-12-01T07:47:54;7;7;
70249;PMS5003;57644;48.416;-123.374;2022-12-01T07:50:25;8;6;
70249;PMS5003;57644;48.416;-123.374;2022-12-01T07:52:55;7;7;
70249;PMS5003;57644;48.416;-123.374;2022-12-01T07:55:26;12;11;
70249;PMS5003;57644;48.416;-123.374;2022-12-01T07:57:58;9;9;
70249;PMS5003;57644;48.416;-123.374;2022-12-01T08:00:27;6;6;
70249;PMS5003;57644;48.416;-123.374;2022-12-01T08:02:58;7;6;
70249;PMS5003;57644;48.416;-123.374;2022-12-01T08:05:29;8;7;
70249;PMS5003;57644;48.416;-123.374;2022-12-01T08:07:59;10;9;
70249;PMS5003;57644;48.416;-123.374;2022-12-01T08:10:29;7;7;
70249;PMS5003;57644;48.416;-123.374;2022-12-01T08:13:00;7;7;
70249;PMS5003;57644;48.416;-123.374;2022-12-01T08:15:30;7;7;
70249;PMS5003;57644;48.416;-123.374;2022-12-01T08:18:01;9;9;
70249;PMS5003;57644;48.416;-123.374;2022-12-01T08:20:31;5;4;
70249;PMS5003;57644;48.416;-123.374;2022-12-01T08:23:02;7;7;
70249;PMS5003;57644;48.416;-123.374;2022-12-01T08:25:33;6;6;
70249;PMS5003;57644;48.416;-123.374;2022-12-01T08:28:03;8;7;
70249;PMS5003;57644;48.416;-123.374;2022-12-01T08:30:35;7;6;
70249;PMS5003;57644;48.416;-123.374;2022-12-01T08:33:05;8;8;
70249;PMS5003;57644;48.416;-123.374;2022-12-01T08:35:35;7;7;
70249;PMS5003;57644;48.416;-123.374;2022-12-01T08:38:06;9;9;
70249;PMS5003;57644;48.416;-123.374;2022-12-01T08:40:36;8;7;
70249;PMS5003;57644;48.416;-123.374;2022-12-01T08:43:07;9;7;
70249;PMS5003;57644;48.416;-123.374;2022-12-01T08:45:38;7;7;
70249;PMS5003;57644;48.416;-123.374;2022-12-01T08:48:08;7;7;
70249;PMS5003;57644;48.416;-123.374;2022-12-01T08:50:39;8;7;
70249;PMS5003;57644;48.416;-123.374;2022-12-01T08:53:09;9;9;
70249;PMS5003;57644;48.416;-123.374;2022-12-01T08:55:40;8;8;
70249;PMS5003;57644;48.416;-123.374;2022-12-01T08:58:10;9;8;
70249;PMS5003;57644;48.416;-123.374;2022-12-01T09:00:42;10;10;
70249;PMS5003;57644;48.416;-123.374;2022-12-01T09:03:12;9;9;
70249;PMS5003;57644;48.416;-123.374;2022-12-01T09:05:43;8;7;
70249;PMS5003;57644;48.416;-123.374;2022-12-01T09:08:13;10;10;
70249;PMS5003;57644;48.416;-123.374;2022-12-01T09:13:15;11;11;
70249;PMS5003;57644;48.416;-123.374;2022-12-01T09:15:45;8;8;
70249;PMS5003;57644;48.416;-123.374;2022-12-01T09:18:15;10;10;
70249;PMS5003;57644;48.416;-123.374;2022-12-01T09:20:46;10;7;
70249;PMS5003;57644;48.416;-123.374;2022-12-01T09:23:17;11;9;
70249;PMS5003;57644;48.416;-123.374;2022-12-01T09:25:49;10;10;
70249;PMS5003;57644;48.416;-123.374;2022-12-01T09:28:17;10;9;
70249;PMS5003;57644;48.416;-123.374;2022-12-01T09:30:48;13;10;
70249;PMS5003;57644;48.416;-123.374;2022-12-01T09:33:18;9;8;
70249;PMS5003;57644;48.416;-123.374;2022-12-01T09:35:49;10;10;
70249;PMS5003;57644;48.416;-123.374;2022-12-01T09:38:20;12;11;
70249;PMS5003;57644;48.416;-123.374;2022-12-01T09:40:50;10;10;
70249;PMS5003;57644;48.416;-123.374;2022-12-01T09:43:21;11;9;
70249;PMS5003;57644;48.416;-123.374;2022-12-01T09:45:53;11;10;
70249;PMS5003;57644;48.416;-123.374;2022-12-01T09:48:24;9;9;
70249;PMS5003;57644;48.416;-123.374;2022-12-01T09:50:53;10;9;
70249;PMS5003;57644;48.416;-123.374;2022-12-01T09:53:24;11;10;
70249;PMS5003;57644;48.416;-123.374;2022-12-01T09:55:54;9;9;
70249;PMS5003;57644;48.416;-123.374;2022-12-01T09:58:26;8;7;
70249;PMS5003;57644;48.416;-123.374;2022-12-01T10:00:55;9;8;
70249;PMS5003;57644;48.416;-123.374;2022-12-01T10:03:28;8;7;
70249;PMS5003;57644;48.416;-123.374;2022-12-01T10:05:58;8;8;
70249;PMS5003;57644;48.416;-123.374;2022-12-01T10:08:28;7;6;
70249;PMS5003;57644;48.416;-123.374;2022-12-01T10:11:03;6;6;
70249;PMS5003;57644;48.416;-123.374;2022-12-01T10:13:30;6;6;
70249;PMS5003;57644;48.416;-123.374;2022-12-01T10:16:02;6;6;
70249;PMS5003;57644;48.416;-123.374;2022-12-01T10:18:34;7;7;
70249;PMS5003;57644;48.416;-123.374;2022-12-01T10:21:02;7;7;
70249;PMS5003;57644;48.416;-123.374;2022-12-01T10:23:36;6;6;
70249;PMS5003;57644;48.416;-123.374;2022-12-01T10:26:02;5;5;
70249;PMS5003;57644;48.416;-123.374;2022-12-01T10:31:05;6;6;
70249;PMS5003;57644;48.416;-123.374;2022-12-01T10:33:34;4;4;
70249;PMS5003;57644;48.416;-123.374;2022-12-01T10:36:04;4;4;
70249;PMS5003;57644;48.416;-123.374;2022-12-01T10:38:35;4;3;
70249;PMS5003;57644;48.416;-123.374;2022-12-01T10:41:05;5;4;
70249;PMS5003;57644;48.416;-123.374;2022-12-01T10:43:37;5;5;
70249;PMS5003;57644;48.416;-123.374;2022-12-01T10:46:18;4;4;
70249;PMS5003;57644;48.416;-123.374;2022-12-01T10:48:39;4;4;
70249;PMS5003;57644;48.416;-123.374;2022-12-01T10:51:13;5;4;
70249;PMS5003;57644;48.416;-123.374;2022-12-01T10:53:38;4;3;
70249;PMS5003;57644;48.416;-123.374;2022-12-01T10:56:10;5;5;
70249;PMS5003;57644;48.416;-123.374;2022-12-01T10:58:41;2;2;
70249;PMS5003;57644;48.416;-123.374;2022-12-01T11:01:15;2;2;
70249;PMS5003;57644;48.416;-123.374;2022-12-01T11:03:41;3;3;
70249;PMS5003;57644;48.416;-123.374;2022-12-01T11:06:12;4;4;
70249;PMS5003;57644;48.416;-123.374;2022-12-01T11:08:43;4;4;
70249;PMS5003;57644;48.416;-123.374;2022-12-01T11:11:21;4;4;
70249;PMS5003;57644;48.416;-123.374;2022-12-01T11:13:43;6;4;
70249;PMS5003;57644;48.416;-123.374;2022-12-01T11:18:45;4;4;
70249;PMS5003;57644;48.416;-123.374;2022-12-01T11:21:25;3;3;
70249;PMS5003;57644;48.416;-123.374;2022-12-01T11:23:47;3;3;
70249;PMS5003;57644;48.416;-123.374;2022-12-01T11:26:17;6;5;
70249;PMS5003;57644;48.416;-123.374;2022-12-01T11:28:51;6;6;
70249;PMS5003;57644;48.416;-123.374;2022-12-01T11:31:18;3;3;
70249;PMS5003;57644;48.416;-123.374;2022-12-01T11:33:49;3;3;
70249;PMS5003;57644;48.416;-123.374;2022-12-01T11:36:21;2;2;
70249;PMS5003;57644;48.416;-123.374;2022-12-01T11:38:53;2;2;
70249;PMS5003;57644;48.416;-123.374;2022-12-01T11:41:23;3;2;
70249;PMS5003;57644;48.416;-123.374;2022-12-01T11:43:51;2;2;
70249;PMS5003;57644;48.416;-123.374;2022-12-01T11:46:27;3;3;
70249;PMS5003;57644;48.416;-123.374;2022-12-01T11:48:56;3;3;
70249;PMS5003;57644;48.416;-123.374;2022-12-01T11:51:26;4;3;
70249;PMS5003;57644;48.416;-123.374;2022-12-01T11:54:04;2;2;
70249;PMS5003;57644;48.416;-123.374;2022-12-01T11:56:25;2;2;
70249;PMS5003;57644;48.416;-123.374;2022-12-01T11:58:58;3;3;
70249;PMS5003;57644;48.416;-123.374;2022-12-01T12:01:31;5;4;
70249;PMS5003;57644;48.416;-123.374;2022-12-01T12:04:00;3;3;
70249;PMS5003;57644;48.416;-123.374;2022-12-01T12:06:28;5;4;
70249;PMS5003;57644;48.416;-123.374;2022-12-01T12:09:02;6;5;
70249;PMS5003;57644;48.416;-123.374;2022-12-01T12:11:30;4;4;
70249;PMS5003;57644;48.416;-123.374;2022-12-01T12:14:04;5;4;
70249;PMS5003;57644;48.416;-123.374;2022-12-01T12:16:33;2;2;
70249;PMS5003;57644;48.416;-123.374;2022-12-01T12:19:04;5;4;
70249;PMS5003;57644;48.416;-123.374;2022-12-01T12:21:32;6;4;
70249;PMS5003;57644;48.416;-123.374;2022-12-01T12:24:07;4;4;
70249;PMS5003;57644;48.416;-123.374;2022-12-01T12:26:34;5;5;
70249;PMS5003;57644;48.416;-123.374;2022-12-01T12:29:16;4;4;
70249;PMS5003;57644;48.416;-123.374;2022-12-01T12:31:35;5;4;
70249;PMS5003;57644;48.416;-123.374;2022-12-01T12:36:39;5;5;
70249;PMS5003;57644;48.416;-123.374;2022-12-01T12:39:08;5;5;
70249;PMS5003;57644;48.416;-123.374;2022-12-01T12:41:37;4;4;
70249;PMS5003;57644;48.416;-123.374;2022-12-01T12:44:11;6;5;
70249;PMS5003;57644;48.416;-123.374;2022-12-01T12:46:39;4;3;
70249;PMS5003;57644;48.416;-123.374;2022-12-01T12:49:11;3;3;
70249;PMS5003;57644;48.416;-123.374;2022-12-01T12:51:39;3;3;
70249;PMS5003;57644;48.416;-123.374;2022-12-01T12:54:14;4;4;
70249;PMS5003;57644;48.416;-123.374;2022-12-01T12:56:42;5;4;
70249;PMS5003;57644;48.416;-123.374;2022-12-01T12:59:11;4;4;
70249;PMS5003;57644;48.416;-123.374;2022-12-01T13:01:42;4;4;
70249;PMS5003;57644;48.416;-123.374;2022-12-01T13:04:12;6;6;
70249;PMS5003;57644;48.416;-123.374;2022-12-01T13:06:43;7;6;
70249;PMS5003;57644;48.416;-123.374;2022-12-01T13:09:14;4;4;
70249;PMS5003;57644;48.416;-123.374;2022-12-01T13:11:45;4;4;
70249;PMS5003;57644;48.416;-123.374;2022-12-01T13:14:16;5;4;
70249;PMS5003;57644;48.416;-123.374;2022-12-01T13:16:45;5;5;
70249;PMS5003;57644;48.416;-123.374;2022-12-01T13:19:17;6;5;
70249;PMS5003;57644;48.416;-123.374;2022-12-01T13:21:47;4;4;
70249;PMS5003;57644;48.416;-123.374;2022-12-01T13:24:17;4;4;
70249;PMS5003;57644;48.416;-123.374;2022-12-01T13:26:48;5;5;
70249;PMS5003;57644;48.416;-123.374;2022-12-01T13:29:18;4;4;
70249;PMS5003;57644;48.416;-123.374;2022-12-01T13:31:49;5;4;
70249;PMS5003;57644;48.416;-123.374;2022-12-01T13:34:21;4;4;
70249;PMS5003;57644;48.416;-123.374;2022-12-01T13:36:50;6;5;
70249;PMS5003;57644;48.416;-123.374;2022-12-01T13:39:21;3;3;
70249;PMS5003;57644;48.416;-123.374;2022-12-01T13:44:23;2;2;
70249;PMS5003;57644;48.416;-123.374;2022-12-01T13:46:56;6;5;
70249;PMS5003;57644;48.416;-123.374;2022-12-01T13:54:26;4;4;
70249;PMS5003;57644;48.416;-123.374;2022-12-01T13:56:59;5;4;
70249;PMS5003;57644;48.416;-123.374;2022-12-01T14:04:28;5;5;
70249;PMS5003;57644;48.416;-123.374;2022-12-01T14:09:29;4;4;
70249;PMS5003;57644;48.416;-123.374;2022-12-01T14:11:59;5;4;
70249;PMS5003;57644;48.416;-123.374;2022-12-01T14:14:33;4;4;
70249;PMS5003;57644;48.416;-123.374;2022-12-01T14:17:00;4;4;
70249;PMS5003;57644;48.416;-123.374;2022-12-01T14:19:31;4;4;
70249;PMS5003;57644;48.416;-123.374;2022-12-01T14:22:02;5;4;
70249;PMS5003;57644;48.416;-123.374;2022-12-01T14:24:33;5;5;
70249;PMS5003;57644;48.416;-123.374;2022-12-01T14:27:03;3;3;
70249;PMS5003;57644;48.416;-123.374;2022-12-01T14:29:33;3;3;
70249;PMS5003;57644;48.416;-123.374;2022-12-01T14:32:04;4;3;
70249;PMS5003;57644;48.416;-123.374;2022-12-01T14:34:34;4;4;
70249;PMS5003;57644;48.416;-123.374;2022-12-01T14:37:05;5;5;
70249;PMS5003;57644;48.416;-123.374;2022-12-01T14:39:36;5;5;
70249;PMS5003;57644;48.416;-123.374;2022-12-01T14:42:13;3;3;
70249;PMS5003;57644;48.416;-123.374;2022-12-01T14:44:39;5;4;
70249;PMS5003;57644;48.416;-123.374;2022-12-01T14:47:10;4;4;
70249;PMS5003;57644;48.416;-123.374;2022-12-01T14:49:39;3;3;
70249;PMS5003;57644;48.416;-123.374;2022-12-01T14:52:13;4;4;
70249;PMS5003;57644;48.416;-123.374;2022-12-01T14:54:41;5;5;
70249;PMS5003;57644;48.416;-123.374;2022-12-01T14:57:10;8;6;
70249;PMS5003;57644;48.416;-123.374;2022-12-01T14:59:41;4;4;
70249;PMS5003;57644;48.416;-123.374;2022-12-01T15:02:11;7;6;
70249;PMS5003;57644;48.416;-123.374;2022-12-01T15:07:13;5;5;
70249;PMS5003;57644;48.416;-123.374;2022-12-01T15:12:22;5;5;
70249;PMS5003;57644;48.416;-123.374;2022-12-01T15:14:46;5;5;
70249;PMS5003;57644;48.416;-123.374;2022-12-01T15:19:46;4;3;
70249;PMS5003;57644;48.416;-123.374;2022-12-01T15:22:16;5;5;
70249;PMS5003;57644;48.416;-123.374;2022-12-01T15:24:47;6;5;
70249;PMS5003;57644;48.416;-123.374;2022-12-01T15:27:23;3;3;
70249;PMS5003;57644;48.416;-123.374;2022-12-01T15:29:48;5;4;
70249;PMS5003;57644;48.416;-123.374;2022-12-01T15:32:20;4;4;
70249;PMS5003;57644;48.416;-123.374;2022-12-01T15:34:50;7;5;
70249;PMS5003;57644;48.416;-123.374;2022-12-01T15:37:21;5;4;
70249;PMS5003;57644;48.416;-123.374;2022-12-01T15:39:52;5;5;
70249;PMS5003;57644;48.416;-123.374;2022-12-01T15:42:22;4;4;
70249;PMS5003;57644;48.416;-123.374;2022-12-01T15:44:56;6;6;
70249;PMS5003;57644;48.416;-123.374;2022-12-01T15:49:53;5;5;
70249;PMS5003;57644;48.416;-123.374;2022-12-01T15:52:24;4;4;
70249;PMS5003;57644;48.416;-123.374;2022-12-01T15:54:54;7;4;
70249;PMS5003;57644;48.416;-123.374;2022-12-01T15:57:25;4;3;
70249;PMS5003;57644;48.416;-123.374;2022-12-01T15:59:56;3;3;
70249;PMS5003;57644;48.416;-123.374;2022-12-01T16:02:27;5;4;
70249;PMS5003;57644;48.416;-123.374;2022-12-01T16:04:59;6;5;
70249;PMS5003;57644;48.416;-123.374;2022-12-01T16:07:30;5;4;
70249;PMS5003;57644;48.416;-123.374;2022-12-01T16:09:59;6;5;
70249;PMS5003;57644;48.416;-123.374;2022-12-01T16:12:29;5;5;
70249;PMS5003;57644;48.416;-123.374;2022-12-01T16:22:31;3;3;
70249;PMS5003;57644;48.416;-123.374;2022-12-01T16:25:02;5;5;
70249;PMS5003;57644;48.416;-123.374;2022-12-01T16:27:33;4;4;
70249;PMS5003;57644;48.416;-123.374;2022-12-01T16:30:04;4;4;
70249;PMS5003;57644;48.416;-123.374;2022-12-01T16:32:35;3;3;
70249;PMS5003;57644;48.416;-123.374;2022-12-01T16:35:05;3;3;
70249;PMS5003;57644;48.416;-123.374;2022-12-01T16:37:35;5;5;
70249;PMS5003;57644;48.416;-123.374;2022-12-01T16:40:06;4;4;
70249;PMS5003;57644;48.416;-123.374;2022-12-01T16:42:37;4;3;
70249;PMS5003;57644;48.416;-123.374;2022-12-01T16:45:09;5;5;
70249;PMS5003;57644;48.416;-123.374;2022-12-01T16:47:38;4;4;
70249;PMS5003;57644;48.416;-123.374;2022-12-01T16:50:11;4;4;
70249;PMS5003;57644;48.416;-123.374;2022-12-01T16:52:40;3;3;
70249;PMS5003;57644;48.416;-123.374;2022-12-01T16:57:41;5;4;
70249;PMS5003;57644;48.416;-123.374;2022-12-01T17:00:12;6;4;
70249;PMS5003;57644;48.416;-123.374;2022-12-01T17:02:42;2;2;
70249;PMS5003;57644;48.416;-123.374;2022-12-01T17:05:12;5;5;
70249;PMS5003;57644;48.416;-123.374;2022-12-01T17:07:43;6;5;